EmailTwitter


Observations de surface / Québec / CYHU (71371)

Régions: Québec | Canada | États-Unis | Europe | France | UK | Ailleurs
Station
Affichage
Infos & localisation pour CYHU (71371) | Aide pour décoder les METARs

Observations prises le 2018-02-25 à 03H00 UTC à MONTREAL/ST HUBE, QB (CYHU)

Etat du ciel: dégagé.

Température: -4.0 Celsius

Point de rosée: -7.0 Celsius

Humidité relative: 80%

Facteur vent: -6.

Vents: Nord-est à 6 km/h ou 3 noeuds.

Pression au niveau moyen de la mer: 102.72 kilopascals.

Calage altimétrique: 102.71 kilopascals ou 30.33 pouces de mercure.

Visibilité horizontale: 9.00 milles terrestres ou 14.40 kilomètres.

Observation METAR:

CYHU 250300Z AUTO 04003KT 9SM CLR M04/M07 A3033 RMK SLP272=